Valle Di Nervion — IBPC — position and weather

sailwx.info

Track history (hours):
 
Tides and Currents Weather Stations Pressure Air Temp Water Temp Dewpoint Dewpoint Depression Visibility Wind Speed Wind Dir Waves Ship Positions

Valle Di Nervion

Last reported at 2016-Jul-25 15:29 UTC. Time now 2016-Jul-26 21:54 UTC.
Position N 44°44' E 012°58'.

Length 176 m; draft 7.1 m.

Type: Tanker. MMSI: 247109500.

Date/timePositionNaut miles runAvg speedWind from/ knotsBaromVisibWave heightAir tempDewpointWater temp
2016-Jul-25 15:29N 44°44' E 012°58'1313.8
2016-Jul-25 14:33N 44°56' E 012°51'1313.0
2016-Jul-25 13:33N 45°07' E 012°41'1212.1
2016-Jul-25 12:33N 45°15' E 012°29'1110.6
2016-Jul-25 11:33N 45°21' E 012°16'6 5.8
2016-Jul-25 10:33N 45°26' E 012°14'0 0.0
2016-Jul-24 16:20N 45°26' E 012°14'0 0.0
2016-Jul-24 15:32N 45°26' E 012°14'0 0.0
2016-Jul-24 07:11N 45°26' E 012°14'1 2.4
2016-Jul-24 06:33N 45°26' E 012°16'6 6.0
2016-Jul-24 05:33N 45°20' E 012°19'4 4.2
2016-Jul-24 04:33N 45°19' E 012°25'1 1.0
2016-Jul-24 03:33N 45°19' E 012°26'0 0.0
2016-Jul-24 02:33N 45°19' E 012°26'0 0.0
2016-Jul-24 01:33N 45°19' E 012°26'0 0.0
2016-Jul-24 00:33N 45°19' E 012°26'0 0.0
2016-Jul-23 23:33N 45°19' E 012°26'0 0.0
2016-Jul-23 22:33N 45°19' E 012°26'0 0.0
2016-Jul-23 21:33N 45°19' E 012°26'0 0.1
2016-Jul-23 20:33N 45°19' E 012°26'0 0.0
2016-Jul-23 19:33N 45°19' E 012°26'0 0.1
2016-Jul-23 18:34N 45°19' E 012°27'8 8.1
2016-Jul-23 17:33N 45°14' E 012°36'10 9.9
2016-Jul-23 16:33N 45°08' E 012°47'1010.0
2016-Jul-23 15:33N 44°59' E 012°54'1312.1
2016-Jul-23 14:29N 44°47' E 013°01'2712.4
2016-Jul-23 12:20N 44°22' E 013°13'1112.5
2016-Jul-23 11:29N 44°14' E 013°22'1312.8
2016-Jul-23 10:29N 44°06' E 013°36'1213.1
2016-Jul-23 09:33N 43°59' E 013°49'1412.9
2016-Jul-23 08:30N 43°51' E 014°06'1212.7
2016-Jul-23 07:33N 43°45' E 014°20'9412.8
2016-Jul-23 00:10N 42°37' E 015°49'812.7
2016-Jul-22 23:33N 42°31' E 015°56'1412.9
2016-Jul-22 22:28N 42°21' E 016°09'1212.8
2016-Jul-22 21:33N 42°12' E 016°20'5012.5
2016-Jul-22 17:33N 41°33' E 017°02'247 9.8
2016-Jul-21 16:12N 37°28' E 016°23'2212.5
2016-Jul-21 14:26N 37°09' E 016°08'1813.2
2016-Jul-21 13:03N 36°55' E 015°54'612.6
2016-Jul-21 12:33N 36°50' E 015°49'1312.7
2016-Jul-21 11:33N 36°40' E 015°40'1312.7
2016-Jul-21 10:33N 36°29' E 015°31'2512.6
2016-Jul-21 08:33N 36°09' E 015°12'1312.9
2016-Jul-21 07:34N 35°59' E 015°03'1212.0
2016-Jul-21 06:33N 35°50' E 014°53'1212.3
2016-Jul-21 05:33N 35°48' E 014°38'4 0.1
2016-Jul-19 13:12N 35°49' E 014°33'2 3.5
2016-Jul-19 12:33N 35°48' E 014°35'9 8.5
2016-Jul-19 11:31N 35°52' E 014°45'0 0.1
2016-Jul-19 10:31N 35°52' E 014°45'0 0.0
2016-Jul-19 09:31N 35°52' E 014°45'0 0.0
2016-Jul-19 08:31N 35°52' E 014°45'0 0.0
2016-Jul-19 07:31N 35°52' E 014°45'0 0.0
2016-Jul-19 04:31N 35°52' E 014°45'0 0.0
2016-Jul-19 03:34N 35°52' E 014°45'0 0.0
2016-Jul-19 02:30N 35°52' E 014°45'0 0.0
2016-Jul-19 01:33N 35°52' E 014°45'0 0.0
2016-Jul-19 00:33N 35°52' E 014°45'0 0.1
2016-Jul-18 23:33N 35°52' E 014°45'0 0.0
2016-Jul-18 22:33N 35°52' E 014°45'0 0.0
2016-Jul-18 21:33N 35°52' E 014°45'0 0.0
2016-Jul-18 18:33N 35°52' E 014°45'0 0.0
2016-Jul-18 17:33N 35°52' E 014°45'0 0.0
2016-Jul-18 16:33N 35°52' E 014°45'0 0.0
2016-Jul-18 15:33N 35°52' E 014°45'0 0.0
2016-Jul-18 14:30N 35°52' E 014°45'0 0.0
2016-Jul-18 13:33N 35°52' E 014°45'0 0.0
2016-Jul-18 12:33N 35°52' E 014°45'0 0.0
2016-Jul-18 11:33N 35°52' E 014°45'0 0.0
2016-Jul-17 18:29N 35°52' E 014°45'0 0.0
2016-Jul-17 17:32N 35°52' E 014°45'0 0.0
2016-Jul-17 16:32N 35°52' E 014°45'0 0.0
2016-Jul-17 15:32N 35°52' E 014°45'0 0.0
2016-Jul-17 14:32N 35°52' E 014°45'0 0.1
2016-Jul-17 13:29N 35°52' E 014°45'6 6.0
2016-Jul-17 12:31N 35°49' E 014°38'100 4.5
2016-Jul-16 14:22N 37°14' E 015°44'18 8.9
2016-Jul-16 12:20N 37°29' E 015°56'8 8.9
2016-Jul-16 11:24N 37°33' E 016°06'7 8.4
2016-Jul-16 10:33N 37°36' E 016°14'  
Track history (hours):
 
Tides and Currents Weather Stations Pressure Air Temp Water Temp Dewpoint Dewpoint Depression Visibility Wind Speed Wind Dir Waves Ship Positions

Valle Di Nervion

Last reported at 2016-Jul-25 15:29 UTC. Time now 2016-Jul-26 21:54 UTC.
Position N 44°44' E 012°58'.

Length 176 m; draft 7.1 m.

Type: Tanker. MMSI: 247109500.

Date/timePositionNaut miles runAvg speedWind from/ knotsBaromVisibWave heightAir tempDewpointWater temp
2016-Jul-25 15:29N 44°44' E 012°58'1313.8
2016-Jul-25 14:33N 44°56' E 012°51'1313.0
2016-Jul-25 13:33N 45°07' E 012°41'1212.1
2016-Jul-25 12:33N 45°15' E 012°29'1110.6
2016-Jul-25 11:33N 45°21' E 012°16'6 5.8
2016-Jul-25 10:33N 45°26' E 012°14'0 0.0
2016-Jul-24 16:20N 45°26' E 012°14'0 0.0
2016-Jul-24 15:32N 45°26' E 012°14'0 0.0
2016-Jul-24 07:11N 45°26' E 012°14'1 2.4
2016-Jul-24 06:33N 45°26' E 012°16'6 6.0
2016-Jul-24 05:33N 45°20' E 012°19'4 4.2
2016-Jul-24 04:33N 45°19' E 012°25'1 1.0
2016-Jul-24 03:33N 45°19' E 012°26'0 0.0
2016-Jul-24 02:33N 45°19' E 012°26'0 0.0
2016-Jul-24 01:33N 45°19' E 012°26'0 0.0
2016-Jul-24 00:33N 45°19' E 012°26'0 0.0
2016-Jul-23 23:33N 45°19' E 012°26'0 0.0
2016-Jul-23 22:33N 45°19' E 012°26'0 0.0
2016-Jul-23 21:33N 45°19' E 012°26'0 0.1
2016-Jul-23 20:33N 45°19' E 012°26'0 0.0
2016-Jul-23 19:33N 45°19' E 012°26'0 0.1
2016-Jul-23 18:34N 45°19' E 012°27'8 8.1
2016-Jul-23 17:33N 45°14' E 012°36'10 9.9
2016-Jul-23 16:33N 45°08' E 012°47'1010.0
2016-Jul-23 15:33N 44°59' E 012°54'1312.1
2016-Jul-23 14:29N 44°47' E 013°01'2712.4
2016-Jul-23 12:20N 44°22' E 013°13'1112.5
2016-Jul-23 11:29N 44°14' E 013°22'1312.8
2016-Jul-23 10:29N 44°06' E 013°36'1213.1
2016-Jul-23 09:33N 43°59' E 013°49'1412.9
2016-Jul-23 08:30N 43°51' E 014°06'1212.7
2016-Jul-23 07:33N 43°45' E 014°20'9412.8
2016-Jul-23 00:10N 42°37' E 015°49'812.7
2016-Jul-22 23:33N 42°31' E 015°56'1412.9
2016-Jul-22 22:28N 42°21' E 016°09'1212.8
2016-Jul-22 21:33N 42°12' E 016°20'5012.5
2016-Jul-22 17:33N 41°33' E 017°02'247 9.8
2016-Jul-21 16:12N 37°28' E 016°23'2212.5
2016-Jul-21 14:26N 37°09' E 016°08'1813.2
2016-Jul-21 13:03N 36°55' E 015°54'612.6
2016-Jul-21 12:33N 36°50' E 015°49'1312.7
2016-Jul-21 11:33N 36°40' E 015°40'1312.7
2016-Jul-21 10:33N 36°29' E 015°31'2512.6
2016-Jul-21 08:33N 36°09' E 015°12'1312.9
2016-Jul-21 07:34N 35°59' E 015°03'1212.0
2016-Jul-21 06:33N 35°50' E 014°53'1212.3
2016-Jul-21 05:33N 35°48' E 014°38'4 0.1
2016-Jul-19 13:12N 35°49' E 014°33'2 3.5
2016-Jul-19 12:33N 35°48' E 014°35'9 8.5
2016-Jul-19 11:31N 35°52' E 014°45'0 0.1
2016-Jul-19 10:31N 35°52' E 014°45'0 0.0
2016-Jul-19 09:31N 35°52' E 014°45'0 0.0
2016-Jul-19 08:31N 35°52' E 014°45'0 0.0
2016-Jul-19 07:31N 35°52' E 014°45'0 0.0
2016-Jul-19 04:31N 35°52' E 014°45'0 0.0
2016-Jul-19 03:34N 35°52' E 014°45'0 0.0
2016-Jul-19 02:30N 35°52' E 014°45'0 0.0
2016-Jul-19 01:33N 35°52' E 014°45'0 0.0
2016-Jul-19 00:33N 35°52' E 014°45'0 0.1
2016-Jul-18 23:33N 35°52' E 014°45'0 0.0
2016-Jul-18 22:33N 35°52' E 014°45'0 0.0
2016-Jul-18 21:33N 35°52' E 014°45'0 0.0
2016-Jul-18 18:33N 35°52' E 014°45'0 0.0
2016-Jul-18 17:33N 35°52' E 014°45'0 0.0
2016-Jul-18 16:33N 35°52' E 014°45'0 0.0
2016-Jul-18 15:33N 35°52' E 014°45'0 0.0
2016-Jul-18 14:30N 35°52' E 014°45'0 0.0
2016-Jul-18 13:33N 35°52' E 014°45'0 0.0
2016-Jul-18 12:33N 35°52' E 014°45'0 0.0
2016-Jul-18 11:33N 35°52' E 014°45'0 0.0
2016-Jul-17 18:29N 35°52' E 014°45'0 0.0
2016-Jul-17 17:32N 35°52' E 014°45'0 0.0
2016-Jul-17 16:32N 35°52' E 014°45'0 0.0
2016-Jul-17 15:32N 35°52' E 014°45'0 0.0
2016-Jul-17 14:32N 35°52' E 014°45'0 0.1
2016-Jul-17 13:29N 35°52' E 014°45'6 6.0
2016-Jul-17 12:31N 35°49' E 014°38'100 4.5
2016-Jul-16 14:22N 37°14' E 015°44'18 8.9
2016-Jul-16 12:20N 37°29' E 015°56'8 8.9
2016-Jul-16 11:24N 37°33' E 016°06'7 8.4
2016-Jul-16 10:33N 37°36' E 016°14'  

Dump ship's entire track history